sensor_id;sensor_type;location;lat;lon;timestamp;temperature;humidity
22360;DHT22;11347;52.030;4.690;2023-02-11T00:01:08;15.00;47.90
22360;DHT22;11347;52.030;4.690;2023-02-11T00:03:37;15.00;48.00
22360;DHT22;11347;52.030;4.690;2023-02-11T00:06:05;15.00;48.10
22360;DHT22;11347;52.030;4.690;2023-02-11T00:08:34;15.00;48.20
22360;DHT22;11347;52.030;4.690;2023-02-11T00:11:00;15.00;48.20
22360;DHT22;11347;52.030;4.690;2023-02-11T00:13:26;15.00;48.20
22360;DHT22;11347;52.030;4.690;2023-02-11T00:15:56;15.00;48.20
22360;DHT22;11347;52.030;4.690;2023-02-11T00:18:22;15.00;48.40
22360;DHT22;11347;52.030;4.690;2023-02-11T00:20:47;15.00;48.40
22360;DHT22;11347;52.030;4.690;2023-02-11T00:23:13;15.00;48.20
22360;DHT22;11347;52.030;4.690;2023-02-11T00:25:43;15.00;48.20
22360;DHT22;11347;52.030;4.690;2023-02-11T00:28:09;15.00;48.20
22360;DHT22;11347;52.030;4.690;2023-02-11T00:30:35;15.10;48.40
22360;DHT22;11347;52.030;4.690;2023-02-11T00:33:01;15.00;48.40
22360;DHT22;11347;52.030;4.690;2023-02-11T00:35:27;15.00;48.40
22360;DHT22;11347;52.030;4.690;2023-02-11T00:37:54;15.00;48.30
22360;DHT22;11347;52.030;4.690;2023-02-11T00:40:20;15.00;48.40
22360;DHT22;11347;52.030;4.690;2023-02-11T00:42:46;15.00;48.40
22360;DHT22;11347;52.030;4.690;2023-02-11T00:45:11;15.10;48.50
22360;DHT22;11347;52.030;4.690;2023-02-11T00:47:37;15.00;48.50
22360;DHT22;11347;52.030;4.690;2023-02-11T00:50:04;15.00;48.50
22360;DHT22;11347;52.030;4.690;2023-02-11T00:52:33;15.00;48.50
22360;DHT22;11347;52.030;4.690;2023-02-11T00:54:59;15.00;48.50
22360;DHT22;11347;52.030;4.690;2023-02-11T00:57:24;15.00;48.50
22360;DHT22;11347;52.030;4.690;2023-02-11T00:59:50;15.00;48.50
22360;DHT22;11347;52.030;4.690;2023-02-11T01:02:15;15.00;48.60
22360;DHT22;11347;52.030;4.690;2023-02-11T01:04:41;15.00;48.60
22360;DHT22;11347;52.030;4.690;2023-02-11T01:07:07;15.10;48.60
22360;DHT22;11347;52.030;4.690;2023-02-11T01:09:33;15.00;48.60
22360;DHT22;11347;52.030;4.690;2023-02-11T01:11:59;15.00;48.70
22360;DHT22;11347;52.030;4.690;2023-02-11T01:14:28;15.00;48.70
22360;DHT22;11347;52.030;4.690;2023-02-11T01:16:54;15.00;48.70
22360;DHT22;11347;52.030;4.690;2023-02-11T01:19:19;15.00;48.90
22360;DHT22;11347;52.030;4.690;2023-02-11T01:21:54;15.00;49.00
22360;DHT22;11347;52.030;4.690;2023-02-11T01:24:19;15.00;49.00
22360;DHT22;11347;52.030;4.690;2023-02-11T01:26:48;15.00;48.90
22360;DHT22;11347;52.030;4.690;2023-02-11T01:29:13;15.00;48.90
22360;DHT22;11347;52.030;4.690;2023-02-11T01:31:39;15.00;49.00
22360;DHT22;11347;52.030;4.690;2023-02-11T01:34:05;15.00;49.00
22360;DHT22;11347;52.030;4.690;2023-02-11T01:36:30;15.00;49.00
22360;DHT22;11347;52.030;4.690;2023-02-11T01:38:56;15.00;49.00
22360;DHT22;11347;52.030;4.690;2023-02-11T01:41:21;15.00;49.00
22360;DHT22;11347;52.030;4.690;2023-02-11T01:43:48;15.00;49.10
22360;DHT22;11347;52.030;4.690;2023-02-11T01:46:35;15.00;49.10
22360;DHT22;11347;52.030;4.690;2023-02-11T01:49:06;15.00;49.10
22360;DHT22;11347;52.030;4.690;2023-02-11T01:51:43;15.00;49.10
22360;DHT22;11347;52.030;4.690;2023-02-11T01:54:13;15.00;49.20
22360;DHT22;11347;52.030;4.690;2023-02-11T01:57:01;15.00;49.10
22360;DHT22;11347;52.030;4.690;2023-02-11T02:08:08;15.00;49.10
22360;DHT22;11347;52.030;4.690;2023-02-11T02:10:37;14.90;49.00
22360;DHT22;11347;52.030;4.690;2023-02-11T02:13:05;14.90;49.00
22360;DHT22;11347;52.030;4.690;2023-02-11T02:15:38;14.90;49.00
22360;DHT22;11347;52.030;4.690;2023-02-11T02:26:32;14.90;49.40
22360;DHT22;11347;52.030;4.690;2023-02-11T02:37:58;14.90;49.50
22360;DHT22;11347;52.030;4.690;2023-02-11T02:40:35;14.90;49.50
22360;DHT22;11347;52.030;4.690;2023-02-11T02:43:02;14.90;49.50
22360;DHT22;11347;52.030;4.690;2023-02-11T02:45:27;14.90;49.70
22360;DHT22;11347;52.030;4.690;2023-02-11T02:47:54;14.80;49.50
22360;DHT22;11347;52.030;4.690;2023-02-11T02:50:24;14.80;49.70
22360;DHT22;11347;52.030;4.690;2023-02-11T02:58:26;14.80;49.60
22360;DHT22;11347;52.030;4.690;2023-02-11T03:06:45;14.80;49.70
22360;DHT22;11347;52.030;4.690;2023-02-11T03:09:18;14.80;49.90
22360;DHT22;11347;52.030;4.690;2023-02-11T03:11:47;14.80;50.20
22360;DHT22;11347;52.030;4.690;2023-02-11T03:14:15;14.70;50.00
22360;DHT22;11347;52.030;4.690;2023-02-11T03:16:43;14.80;50.10
22360;DHT22;11347;52.030;4.690;2023-02-11T03:19:18;14.80;50.10
22360;DHT22;11347;52.030;4.690;2023-02-11T03:21:46;14.80;50.10
22360;DHT22;11347;52.030;4.690;2023-02-11T03:24:30;14.70;50.00
22360;DHT22;11347;52.030;4.690;2023-02-11T03:26:58;14.70;50.10
22360;DHT22;11347;52.030;4.690;2023-02-11T03:29:35;14.80;51.00
22360;DHT22;11347;52.030;4.690;2023-02-11T03:32:19;14.70;50.30
22360;DHT22;11347;52.030;4.690;2023-02-11T03:37:51;14.70;50.50
22360;DHT22;11347;52.030;4.690;2023-02-11T03:40:24;14.70;50.60
22360;DHT22;11347;52.030;4.690;2023-02-11T03:42:57;14.70;50.50
22360;DHT22;11347;52.030;4.690;2023-02-11T03:45:24;14.70;50.30
22360;DHT22;11347;52.030;4.690;2023-02-11T03:47:58;14.70;50.10
22360;DHT22;11347;52.030;4.690;2023-02-11T03:50:25;14.70;50.10
22360;DHT22;11347;52.030;4.690;2023-02-11T03:52:53;14.70;50.10
22360;DHT22;11347;52.030;4.690;2023-02-11T03:55:21;14.70;50.20
22360;DHT22;11347;52.030;4.690;2023-02-11T03:57:47;14.70;50.40
22360;DHT22;11347;52.030;4.690;2023-02-11T04:00:13;14.70;50.20
22360;DHT22;11347;52.030;4.690;2023-02-11T04:02:40;14.70;50.20
22360;DHT22;11347;52.030;4.690;2023-02-11T04:05:07;14.70;50.20
22360;DHT22;11347;52.030;4.690;2023-02-11T04:07:33;14.70;50.20
22360;DHT22;11347;52.030;4.690;2023-02-11T04:09:59;14.70;50.20
22360;DHT22;11347;52.030;4.690;2023-02-11T04:12:25;14.70;50.20
22360;DHT22;11347;52.030;4.690;2023-02-11T04:14:53;14.70;50.20
22360;DHT22;11347;52.030;4.690;2023-02-11T04:17:19;14.70;50.20
22360;DHT22;11347;52.030;4.690;2023-02-11T04:19:44;14.70;50.00
22360;DHT22;11347;52.030;4.690;2023-02-11T04:22:10;14.70;50.00
22360;DHT22;11347;52.030;4.690;2023-02-11T04:24:35;14.70;50.10
22360;DHT22;11347;52.030;4.690;2023-02-11T04:27:01;14.70;50.20
22360;DHT22;11347;52.030;4.690;2023-02-11T04:29:27;14.60;50.30
22360;DHT22;11347;52.030;4.690;2023-02-11T04:31:53;14.70;50.20
22360;DHT22;11347;52.030;4.690;2023-02-11T04:34:20;14.70;50.10
22360;DHT22;11347;52.030;4.690;2023-02-11T04:36:46;14.70;50.00
22360;DHT22;11347;52.030;4.690;2023-02-11T04:39:11;14.70;50.10
22360;DHT22;11347;52.030;4.690;2023-02-11T04:41:37;14.70;50.10
22360;DHT22;11347;52.030;4.690;2023-02-11T04:44:03;14.60;50.00
22360;DHT22;11347;52.030;4.690;2023-02-11T04:46:29;14.70;50.10
22360;DHT22;11347;52.030;4.690;2023-02-11T04:48:55;14.70;50.30
22360;DHT22;11347;52.030;4.690;2023-02-11T04:51:21;14.70;50.20
22360;DHT22;11347;52.030;4.690;2023-02-11T04:53:46;14.70;50.20
22360;DHT22;11347;52.030;4.690;2023-02-11T04:56:12;14.70;50.80
22360;DHT22;11347;52.030;4.690;2023-02-11T04:58:38;14.70;50.10
22360;DHT22;11347;52.030;4.690;2023-02-11T05:01:12;14.60;50.40
22360;DHT22;11347;52.030;4.690;2023-02-11T05:03:39;14.70;50.40
22360;DHT22;11347;52.030;4.690;2023-02-11T05:06:05;14.70;50.60
22360;DHT22;11347;52.030;4.690;2023-02-11T05:08:31;14.70;50.60
22360;DHT22;11347;52.030;4.690;2023-02-11T05:10:59;14.60;51.00
22360;DHT22;11347;52.030;4.690;2023-02-11T05:13:27;14.70;50.50
22360;DHT22;11347;52.030;4.690;2023-02-11T05:15:53;14.60;50.40
22360;DHT22;11347;52.030;4.690;2023-02-11T05:18:18;14.60;50.60
22360;DHT22;11347;52.030;4.690;2023-02-11T05:20:47;14.60;50.50
22360;DHT22;11347;52.030;4.690;2023-02-11T05:23:12;14.60;50.40
22360;DHT22;11347;52.030;4.690;2023-02-11T05:25:38;14.60;50.40
22360;DHT22;11347;52.030;4.690;2023-02-11T05:28:04;14.60;50.30
22360;DHT22;11347;52.030;4.690;2023-02-11T05:30:30;14.60;50.30
22360;DHT22;11347;52.030;4.690;2023-02-11T05:32:56;14.60;50.20
22360;DHT22;11347;52.030;4.690;2023-02-11T05:35:22;14.60;50.10
22360;DHT22;11347;52.030;4.690;2023-02-11T05:37:48;14.60;50.20
22360;DHT22;11347;52.030;4.690;2023-02-11T05:40:13;14.60;50.30
22360;DHT22;11347;52.030;4.690;2023-02-11T05:42:39;14.60;50.30
22360;DHT22;11347;52.030;4.690;2023-02-11T05:45:05;14.60;50.30
22360;DHT22;11347;52.030;4.690;2023-02-11T05:47:31;14.60;50.30
22360;DHT22;11347;52.030;4.690;2023-02-11T05:50:00;14.50;50.20
22360;DHT22;11347;52.030;4.690;2023-02-11T05:52:25;14.60;50.30
22360;DHT22;11347;52.030;4.690;2023-02-11T05:54:51;14.60;50.90
22360;DHT22;11347;52.030;4.690;2023-02-11T05:57:17;14.60;50.40
22360;DHT22;11347;52.030;4.690;2023-02-11T05:59:42;14.60;50.40
22360;DHT22;11347;52.030;4.690;2023-02-11T06:02:09;14.50;50.40
22360;DHT22;11347;52.030;4.690;2023-02-11T06:04:35;14.50;50.20
22360;DHT22;11347;52.030;4.690;2023-02-11T06:07:01;14.60;50.30
22360;DHT22;11347;52.030;4.690;2023-02-11T06:09:27;14.50;50.10
22360;DHT22;11347;52.030;4.690;2023-02-11T06:11:52;14.50;50.10
22360;DHT22;11347;52.030;4.690;2023-02-11T06:14:18;14.50;50.10
22360;DHT22;11347;52.030;4.690;2023-02-11T06:16:47;14.50;50.10
22360;DHT22;11347;52.030;4.690;2023-02-11T06:19:12;14.50;50.10
22360;DHT22;11347;52.030;4.690;2023-02-11T06:21:38;14.50;50.10
22360;DHT22;11347;52.030;4.690;2023-02-11T06:24:04;14.50;50.10
22360;DHT22;11347;52.030;4.690;2023-02-11T06:26:30;14.50;50.20
22360;DHT22;11347;52.030;4.690;2023-02-11T06:28:59;14.50;50.10
22360;DHT22;11347;52.030;4.690;2023-02-11T06:31:24;14.50;50.20
22360;DHT22;11347;52.030;4.690;2023-02-11T06:33:50;14.50;50.30
22360;DHT22;11347;52.030;4.690;2023-02-11T06:36:18;14.50;50.40
22360;DHT22;11347;52.030;4.690;2023-02-11T06:38:45;14.50;51.00
22360;DHT22;11347;52.030;4.690;2023-02-11T06:41:12;14.50;50.40
22360;DHT22;11347;52.030;4.690;2023-02-11T06:43:38;14.50;50.80
22360;DHT22;11347;52.030;4.690;2023-02-11T06:46:05;14.50;51.10
22360;DHT22;11347;52.030;4.690;2023-02-11T06:48:30;14.50;51.00
22360;DHT22;11347;52.030;4.690;2023-02-11T06:50:56;14.50;51.00
22360;DHT22;11347;52.030;4.690;2023-02-11T06:53:29;14.50;51.20
22360;DHT22;11347;52.030;4.690;2023-02-11T06:56:02;14.50;51.50
22360;DHT22;11347;52.030;4.690;2023-02-11T06:58:28;14.50;51.80
22360;DHT22;11347;52.030;4.690;2023-02-11T07:00:54;14.50;51.70
22360;DHT22;11347;52.030;4.690;2023-02-11T07:03:19;14.50;52.20
22360;DHT22;11347;52.030;4.690;2023-02-11T07:05:45;14.50;51.70
22360;DHT22;11347;52.030;4.690;2023-02-11T07:08:10;14.50;51.50
22360;DHT22;11347;52.030;4.690;2023-02-11T07:10:36;14.50;51.30
22360;DHT22;11347;52.030;4.690;2023-02-11T07:13:01;14.50;51.30
22360;DHT22;11347;52.030;4.690;2023-02-11T07:15:27;14.50;51.20
22360;DHT22;11347;52.030;4.690;2023-02-11T07:17:52;14.50;51.00
22360;DHT22;11347;52.030;4.690;2023-02-11T07:20:18;14.50;50.80
22360;DHT22;11347;52.030;4.690;2023-02-11T07:22:44;14.50;50.80
22360;DHT22;11347;52.030;4.690;2023-02-11T07:25:09;14.50;51.00
22360;DHT22;11347;52.030;4.690;2023-02-11T07:27:35;14.50;50.70
22360;DHT22;11347;52.030;4.690;2023-02-11T07:30:01;14.50;50.60
22360;DHT22;11347;52.030;4.690;2023-02-11T07:32:26;14.50;50.60
22360;DHT22;11347;52.030;4.690;2023-02-11T07:34:55;14.50;50.60
22360;DHT22;11347;52.030;4.690;2023-02-11T07:37:20;14.50;50.60
22360;DHT22;11347;52.030;4.690;2023-02-11T07:39:46;14.50;50.70
22360;DHT22;11347;52.030;4.690;2023-02-11T07:42:12;14.50;50.70
22360;DHT22;11347;52.030;4.690;2023-02-11T07:44:37;14.50;50.90
22360;DHT22;11347;52.030;4.690;2023-02-11T07:47:03;14.50;51.40
22360;DHT22;11347;52.030;4.690;2023-02-11T07:49:28;14.50;51.80
22360;DHT22;11347;52.030;4.690;2023-02-11T07:51:54;14.50;52.10
22360;DHT22;11347;52.030;4.690;2023-02-11T07:54:19;14.50;53.10
22360;DHT22;11347;52.030;4.690;2023-02-11T07:56:45;14.50;53.10
22360;DHT22;11347;52.030;4.690;2023-02-11T07:59:11;14.60;53.20
22360;DHT22;11347;52.030;4.690;2023-02-11T08:01:37;14.60;53.20
22360;DHT22;11347;52.030;4.690;2023-02-11T08:04:03;14.60;53.30
22360;DHT22;11347;52.030;4.690;2023-02-11T08:06:33;14.60;53.20
22360;DHT22;11347;52.030;4.690;2023-02-11T08:09:04;14.60;53.20
22360;DHT22;11347;52.030;4.690;2023-02-11T08:11:30;14.60;53.20
22360;DHT22;11347;52.030;4.690;2023-02-11T08:13:56;14.70;53.30
22360;DHT22;11347;52.030;4.690;2023-02-11T08:16:25;14.70;52.40
22360;DHT22;11347;52.030;4.690;2023-02-11T08:18:52;14.70;51.90
22360;DHT22;11347;52.030;4.690;2023-02-11T08:21:20;14.70;51.70
22360;DHT22;11347;52.030;4.690;2023-02-11T08:23:49;14.60;51.30
22360;DHT22;11347;52.030;4.690;2023-02-11T08:26:20;14.60;50.90
22360;DHT22;11347;52.030;4.690;2023-02-11T08:28:48;14.60;50.70
22360;DHT22;11347;52.030;4.690;2023-02-11T08:31:20;14.70;50.60
22360;DHT22;11347;52.030;4.690;2023-02-11T08:33:46;14.60;50.40
22360;DHT22;11347;52.030;4.690;2023-02-11T08:36:17;14.60;50.30
22360;DHT22;11347;52.030;4.690;2023-02-11T08:38:43;14.60;50.30
22360;DHT22;11347;52.030;4.690;2023-02-11T08:41:09;14.60;50.10
22360;DHT22;11347;52.030;4.690;2023-02-11T08:43:35;14.60;50.10
22360;DHT22;11347;52.030;4.690;2023-02-11T08:46:02;14.60;50.00
22360;DHT22;11347;52.030;4.690;2023-02-11T08:48:28;14.60;50.00
22360;DHT22;11347;52.030;4.690;2023-02-11T08:50:59;14.60;49.80
22360;DHT22;11347;52.030;4.690;2023-02-11T08:53:24;14.60;49.80
22360;DHT22;11347;52.030;4.690;2023-02-11T08:55:51;14.60;49.80
22360;DHT22;11347;52.030;4.690;2023-02-11T08:58:18;14.60;49.70
22360;DHT22;11347;52.030;4.690;2023-02-11T09:00:43;14.60;49.70
22360;DHT22;11347;52.030;4.690;2023-02-11T09:03:11;14.60;49.70
22360;DHT22;11347;52.030;4.690;2023-02-11T09:05:49;14.60;49.60
22360;DHT22;11347;52.030;4.690;2023-02-11T09:08:20;14.60;49.60
22360;DHT22;11347;52.030;4.690;2023-02-11T09:10:58;14.60;49.50
22360;DHT22;11347;52.030;4.690;2023-02-11T09:13:23;14.60;49.50
22360;DHT22;11347;52.030;4.690;2023-02-11T09:15:49;14.60;49.50
22360;DHT22;11347;52.030;4.690;2023-02-11T09:18:15;14.60;49.30
22360;DHT22;11347;52.030;4.690;2023-02-11T09:20:40;14.60;49.30
22360;DHT22;11347;52.030;4.690;2023-02-11T09:23:06;14.60;49.50
22360;DHT22;11347;52.030;4.690;2023-02-11T09:25:31;14.70;49.60
22360;DHT22;11347;52.030;4.690;2023-02-11T09:27:57;14.60;49.40
22360;DHT22;11347;52.030;4.690;2023-02-11T09:30:22;14.70;49.30
22360;DHT22;11347;52.030;4.690;2023-02-11T09:32:48;14.60;49.10
22360;DHT22;11347;52.030;4.690;2023-02-11T09:35:14;14.60;49.10
22360;DHT22;11347;52.030;4.690;2023-02-11T09:37:39;14.70;49.20
22360;DHT22;11347;52.030;4.690;2023-02-11T09:40:05;14.70;49.00
22360;DHT22;11347;52.030;4.690;2023-02-11T09:45:28;14.70;49.10
22360;DHT22;11347;52.030;4.690;2023-02-11T09:50:25;14.70;49.00
22360;DHT22;11347;52.030;4.690;2023-02-11T09:53:13;14.70;49.00
22360;DHT22;11347;52.030;4.690;2023-02-11T09:55:42;14.70;49.00
22360;DHT22;11347;52.030;4.690;2023-02-11T09:58:21;14.70;49.00
22360;DHT22;11347;52.030;4.690;2023-02-11T10:14:49;14.70;49.00
22360;DHT22;11347;52.030;4.690;2023-02-11T10:23:23;14.70;48.90
22360;DHT22;11347;52.030;4.690;2023-02-11T10:25:54;14.70;48.80
22360;DHT22;11347;52.030;4.690;2023-02-11T10:28:30;14.70;48.80
22360;DHT22;11347;52.030;4.690;2023-02-11T10:31:08;14.70;48.80
22360;DHT22;11347;52.030;4.690;2023-02-11T10:33:39;14.70;48.80
22360;DHT22;11347;52.030;4.690;2023-02-11T10:36:10;14.70;48.80
22360;DHT22;11347;52.030;4.690;2023-02-11T10:38:36;14.70;48.90
22360;DHT22;11347;52.030;4.690;2023-02-11T10:41:02;14.70;48.80
22360;DHT22;11347;52.030;4.690;2023-02-11T10:43:29;14.80;48.80
22360;DHT22;11347;52.030;4.690;2023-02-11T10:45:56;14.80;48.80
22360;DHT22;11347;52.030;4.690;2023-02-11T10:53:35;14.90;48.40
22360;DHT22;11347;52.030;4.690;2023-02-11T10:56:01;14.90;48.40
22360;DHT22;11347;52.030;4.690;2023-02-11T10:58:39;14.90;48.30
22360;DHT22;11347;52.030;4.690;2023-02-11T11:01:06;14.90;48.20
22360;DHT22;11347;52.030;4.690;2023-02-11T11:03:36;14.90;48.10
22360;DHT22;11347;52.030;4.690;2023-02-11T11:06:05;14.90;48.10
22360;DHT22;11347;52.030;4.690;2023-02-11T11:08:47;14.90;48.10
22360;DHT22;11347;52.030;4.690;2023-02-11T11:11:17;14.90;48.00
22360;DHT22;11347;52.030;4.690;2023-02-11T11:13:55;14.90;48.00
22360;DHT22;11347;52.030;4.690;2023-02-11T11:19:19;14.90;47.80
22360;DHT22;11347;52.030;4.690;2023-02-11T11:21:47;15.00;47.90
22360;DHT22;11347;52.030;4.690;2023-02-11T11:24:43;15.00;47.90
22360;DHT22;11347;52.030;4.690;2023-02-11T11:27:23;15.00;47.80
22360;DHT22;11347;52.030;4.690;2023-02-11T11:29:53;15.00;47.80
22360;DHT22;11347;52.030;4.690;2023-02-11T11:32:26;15.00;47.80
22360;DHT22;11347;52.030;4.690;2023-02-11T11:34:54;15.00;47.80
22360;DHT22;11347;52.030;4.690;2023-02-11T11:37:26;15.00;47.70
22360;DHT22;11347;52.030;4.690;2023-02-11T11:40:02;15.00;47.70
22360;DHT22;11347;52.030;4.690;2023-02-11T11:42:34;15.00;47.70
22360;DHT22;11347;52.030;4.690;2023-02-11T11:45:23;15.00;47.70
22360;DHT22;11347;52.030;4.690;2023-02-11T11:47:53;15.00;47.70
22360;DHT22;11347;52.030;4.690;2023-02-11T11:50:29;15.00;47.70
22360;DHT22;11347;52.030;4.690;2023-02-11T11:53:12;15.00;47.70
22360;DHT22;11347;52.030;4.690;2023-02-11T11:56:01;15.00;47.70
22360;DHT22;11347;52.030;4.690;2023-02-11T11:58:35;15.00;47.60
22360;DHT22;11347;52.030;4.690;2023-02-11T12:15:05;15.10;47.80
22360;DHT22;11347;52.030;4.690;2023-02-11T12:20:18;15.10;47.80
22360;DHT22;11347;52.030;4.690;2023-02-11T12:23:00;15.10;47.80
22360;DHT22;11347;52.030;4.690;2023-02-11T12:30:59;15.20;48.10
22360;DHT22;11347;52.030;4.690;2023-02-11T12:33:51;15.20;48.00
22360;DHT22;11347;52.030;4.690;2023-02-11T12:36:43;15.20;47.90
22360;DHT22;11347;52.030;4.690;2023-02-11T12:39:21;15.20;47.80
22360;DHT22;11347;52.030;4.690;2023-02-11T12:50:48;15.30;47.60
22360;DHT22;11347;52.030;4.690;2023-02-11T12:56:23;15.30;47.50
22360;DHT22;11347;52.030;4.690;2023-02-11T12:58:53;15.30;47.50
22360;DHT22;11347;52.030;4.690;2023-02-11T13:01:29;15.40;47.60
22360;DHT22;11347;52.030;4.690;2023-02-11T13:04:11;15.40;47.60
22360;DHT22;11347;52.030;4.690;2023-02-11T13:06:56;15.40;47.50
22360;DHT22;11347;52.030;4.690;2023-02-11T13:09:26;15.40;47.50
22360;DHT22;11347;52.030;4.690;2023-02-11T13:11:56;15.40;47.50
22360;DHT22;11347;52.030;4.690;2023-02-11T13:14:43;15.40;47.50
22360;DHT22;11347;52.030;4.690;2023-02-11T13:17:16;15.40;47.40
22360;DHT22;11347;52.030;4.690;2023-02-11T13:19:52;15.40;47.40
22360;DHT22;11347;52.030;4.690;2023-02-11T13:22:27;15.50;47.40
22360;DHT22;11347;52.030;4.690;2023-02-11T13:28:02;15.50;47.40
22360;DHT22;11347;52.030;4.690;2023-02-11T13:30:33;15.50;47.40
22360;DHT22;11347;52.030;4.690;2023-02-11T13:33:01;15.50;47.30
22360;DHT22;11347;52.030;4.690;2023-02-11T13:35:46;15.50;47.40
22360;DHT22;11347;52.030;4.690;2023-02-11T13:40:44;15.50;47.30
22360;DHT22;11347;52.030;4.690;2023-02-11T13:43:24;15.50;47.60
22360;DHT22;11347;52.030;4.690;2023-02-11T13:46:01;15.50;47.60
22360;DHT22;11347;52.030;4.690;2023-02-11T13:48:36;15.50;47.60
22360;DHT22;11347;52.030;4.690;2023-02-11T13:53:47;15.50;47.40
22360;DHT22;11347;52.030;4.690;2023-02-11T13:56:35;15.50;47.50
22360;DHT22;11347;52.030;4.690;2023-02-11T13:59:42;15.50;47.50
22360;DHT22;11347;52.030;4.690;2023-02-11T14:16:12;15.60;47.50
22360;DHT22;11347;52.030;4.690;2023-02-11T14:18:40;15.60;47.50
22360;DHT22;11347;52.030;4.690;2023-02-11T14:21:35;15.60;47.50
22360;DHT22;11347;52.030;4.690;2023-02-11T14:30:07;15.60;47.50
22360;DHT22;11347;52.030;4.690;2023-02-11T14:33:05;15.60;47.50
22360;DHT22;11347;52.030;4.690;2023-02-11T14:38:45;15.60;47.50
22360;DHT22;11347;52.030;4.690;2023-02-11T14:41:38;15.60;47.60
22360;DHT22;11347;52.030;4.690;2023-02-11T14:44:10;15.60;47.60
22360;DHT22;11347;52.030;4.690;2023-02-11T14:46:37;15.60;47.60
22360;DHT22;11347;52.030;4.690;2023-02-11T14:49:18;15.60;47.60
22360;DHT22;11347;52.030;4.690;2023-02-11T14:51:46;15.60;47.70
22360;DHT22;11347;52.030;4.690;2023-02-11T14:54:16;15.60;47.60
22360;DHT22;11347;52.030;4.690;2023-02-11T14:56:43;15.60;47.70
22360;DHT22;11347;52.030;4.690;2023-02-11T14:59:19;15.60;47.60
22360;DHT22;11347;52.030;4.690;2023-02-11T15:01:48;15.60;47.60
22360;DHT22;11347;52.030;4.690;2023-02-11T15:04:34;15.60;47.70
22360;DHT22;11347;52.030;4.690;2023-02-11T15:07:06;15.60;47.70
22360;DHT22;11347;52.030;4.690;2023-02-11T15:09:42;15.60;47.80
22360;DHT22;11347;52.030;4.690;2023-02-11T15:14:47;15.60;47.80
22360;DHT22;11347;52.030;4.690;2023-02-11T15:17:17;15.60;47.80
22360;DHT22;11347;52.030;4.690;2023-02-11T15:19:46;15.60;47.90
22360;DHT22;11347;52.030;4.690;2023-02-11T15:22:22;15.60;47.90
22360;DHT22;11347;52.030;4.690;2023-02-11T15:25:15;15.60;47.90
22360;DHT22;11347;52.030;4.690;2023-02-11T15:27:46;15.60;47.90
22360;DHT22;11347;52.030;4.690;2023-02-11T15:32:52;15.60;47.90
22360;DHT22;11347;52.030;4.690;2023-02-11T15:35:37;15.60;48.00
22360;DHT22;11347;52.030;4.690;2023-02-11T15:38:06;15.60;48.00
22360;DHT22;11347;52.030;4.690;2023-02-11T15:40:34;15.60;48.00
22360;DHT22;11347;52.030;4.690;2023-02-11T15:43:04;15.60;47.80
22360;DHT22;11347;52.030;4.690;2023-02-11T15:45:32;15.60;47.90
22360;DHT22;11347;52.030;4.690;2023-02-11T15:48:17;15.60;47.90
22360;DHT22;11347;52.030;4.690;2023-02-11T15:50:54;15.50;47.80
22360;DHT22;11347;52.030;4.690;2023-02-11T15:56:24;15.50;47.90
22360;DHT22;11347;52.030;4.690;2023-02-11T15:58:53;15.50;47.90
22360;DHT22;11347;52.030;4.690;2023-02-11T16:01:31;15.50;48.20
22360;DHT22;11347;52.030;4.690;2023-02-11T16:03:57;15.50;48.20
22360;DHT22;11347;52.030;4.690;2023-02-11T16:06:36;15.50;48.30
22360;DHT22;11347;52.030;4.690;2023-02-11T16:11:55;15.50;48.30
22360;DHT22;11347;52.030;4.690;2023-02-11T16:17:06;15.50;48.40
22360;DHT22;11347;52.030;4.690;2023-02-11T16:19:34;15.50;48.50
22360;DHT22;11347;52.030;4.690;2023-02-11T16:22:06;15.50;48.50
22360;DHT22;11347;52.030;4.690;2023-02-11T16:24:37;15.50;48.50
22360;DHT22;11347;52.030;4.690;2023-02-11T16:27:27;15.50;48.60
22360;DHT22;11347;52.030;4.690;2023-02-11T16:29:56;15.40;48.50
22360;DHT22;11347;52.030;4.690;2023-02-11T16:32:24;15.40;48.60
22360;DHT22;11347;52.030;4.690;2023-02-11T16:34:51;15.40;48.50
22360;DHT22;11347;52.030;4.690;2023-02-11T16:37:20;15.40;48.50
22360;DHT22;11347;52.030;4.690;2023-02-11T16:39:46;15.40;48.60
22360;DHT22;11347;52.030;4.690;2023-02-11T16:42:11;15.40;48.60
22360;DHT22;11347;52.030;4.690;2023-02-11T16:44:37;15.40;48.60
22360;DHT22;11347;52.030;4.690;2023-02-11T16:47:06;15.40;48.60
22360;DHT22;11347;52.030;4.690;2023-02-11T16:49:37;15.40;48.60
22360;DHT22;11347;52.030;4.690;2023-02-11T16:52:07;15.40;48.60
22360;DHT22;11347;52.030;4.690;2023-02-11T16:54:33;15.40;48.60
22360;DHT22;11347;52.030;4.690;2023-02-11T16:56:59;15.40;48.70
22360;DHT22;11347;52.030;4.690;2023-02-11T16:59:26;15.40;48.80
22360;DHT22;11347;52.030;4.690;2023-02-11T17:01:52;15.40;48.80
22360;DHT22;11347;52.030;4.690;2023-02-11T17:04:19;15.40;48.80
22360;DHT22;11347;52.030;4.690;2023-02-11T17:06:45;15.40;48.90
22360;DHT22;11347;52.030;4.690;2023-02-11T17:09:21;15.40;48.90
22360;DHT22;11347;52.030;4.690;2023-02-11T17:11:47;15.40;49.00
22360;DHT22;11347;52.030;4.690;2023-02-11T17:14:13;15.40;49.00
22360;DHT22;11347;52.030;4.690;2023-02-11T17:16:39;15.40;49.00
22360;DHT22;11347;52.030;4.690;2023-02-11T17:19:05;15.40;49.00
22360;DHT22;11347;52.030;4.690;2023-02-11T17:21:33;15.40;49.00
22360;DHT22;11347;52.030;4.690;2023-02-11T17:23:59;15.40;48.70
22360;DHT22;11347;52.030;4.690;2023-02-11T17:26:24;15.30;48.70
22360;DHT22;11347;52.030;4.690;2023-02-11T17:28:50;15.40;48.80
22360;DHT22;11347;52.030;4.690;2023-02-11T17:31:16;15.40;48.80
22360;DHT22;11347;52.030;4.690;2023-02-11T17:33:41;15.30;48.70
22360;DHT22;11347;52.030;4.690;2023-02-11T17:36:08;15.30;48.70
22360;DHT22;11347;52.030;4.690;2023-02-11T17:38:34;15.30;48.80
22360;DHT22;11347;52.030;4.690;2023-02-11T17:41:02;15.30;48.80
22360;DHT22;11347;52.030;4.690;2023-02-11T17:43:29;15.30;48.90
22360;DHT22;11347;52.030;4.690;2023-02-11T17:45:54;15.30;48.80
22360;DHT22;11347;52.030;4.690;2023-02-11T17:48:20;15.30;48.80
22360;DHT22;11347;52.030;4.690;2023-02-11T17:50:45;15.30;48.80
22360;DHT22;11347;52.030;4.690;2023-02-11T17:53:11;15.30;48.80
22360;DHT22;11347;52.030;4.690;2023-02-11T17:55:36;15.30;48.90
22360;DHT22;11347;52.030;4.690;2023-02-11T17:58:05;15.30;48.90
22360;DHT22;11347;52.030;4.690;2023-02-11T18:00:31;15.30;48.90
22360;DHT22;11347;52.030;4.690;2023-02-11T18:02:57;15.30;49.00
22360;DHT22;11347;52.030;4.690;2023-02-11T18:05:28;15.30;49.10
22360;DHT22;11347;52.030;4.690;2023-02-11T18:07:57;15.30;49.00
22360;DHT22;11347;52.030;4.690;2023-02-11T18:10:29;15.30;49.00
22360;DHT22;11347;52.030;4.690;2023-02-11T18:12:54;15.30;49.00
22360;DHT22;11347;52.030;4.690;2023-02-11T18:15:26;15.30;49.00
22360;DHT22;11347;52.030;4.690;2023-02-11T18:17:52;15.30;49.10